Robin B Ingram — WDB9002 — position and weather

sailwx.info

Track history (hours):
 
Tides and Currents Weather Stations Pressure Air Temp Water Temp Dewpoint Dewpoint Depression Visibility Wind Speed Wind Dir Waves Ship Positions

Robin B Ingram

Owner: Ingram Barge Company LLC, Nashville, TN. More information available from US FCC via Universal Licensing System and Coast Guard Vessel Documentation Center.

Last reported at 2017-Oct-02 08:38 UTC. Time now 2017-Oct-20 12:52 UTC.
Position N 38°58' W 090°33'.
Warning: this ship's position is 18 days out of date.

Length 39 m; draft 2.7 m.

Type: Towing. MMSI: 366967670.

Date/timePositionNaut miles runAvg speedWind from/ knotsBaromVisibWave heightAir tempDewpointWater temp
2017-Oct-02 08:38N 38°58' W 090°33'1 4.3
2017-Oct-02 08:24N 38°57' W 090°32'1 3.6
2017-Oct-02 08:00N 38°58' W 090°30'2 4.0
2017-Oct-02 07:30N 38°58' W 090°27'2 3.9
2017-Oct-02 07:00N 38°58' W 090°25'1 2.0
2017-Oct-02 06:30N 38°58' W 090°24'0 0.0
2017-Oct-02 06:00N 38°58' W 090°24'0 0.1
2017-Oct-02 05:30N 38°58' W 090°24'0 0.1
2017-Oct-02 05:00N 38°58' W 090°24'0 0.0
2017-Oct-02 04:30N 38°58' W 090°24'0 0.0
2017-Oct-02 04:00N 38°58' W 090°24'1 1.1
2017-Oct-02 03:30N 38°57' W 090°23'2 3.5
2017-Oct-02 03:00N 38°57' W 090°21'2 3.5
2017-Oct-02 02:30N 38°56' W 090°19'2 3.5
2017-Oct-02 02:00N 38°55' W 090°17'2 3.5
2017-Oct-02 01:27N 38°55' W 090°14'2 3.7
2017-Oct-02 01:00N 38°54' W 090°13'  
2017-Sep-29 14:12N 38°50' W 090°06'0 0.0
2017-Sep-29 14:00N 38°50' W 090°06'0 0.0
2017-Sep-29 13:30N 38°50' W 090°06'0 0.0
2017-Sep-29 13:00N 38°50' W 090°06'0 0.0
2017-Sep-29 10:33N 38°50' W 090°06'0 0.0
2017-Sep-29 10:24N 38°50' W 090°06'0 0.0
2017-Sep-29 07:02N 38°50' W 090°06'1 4.5
2017-Sep-29 06:51N 38°49' W 090°07'4 0.3
2017-Sep-28 18:11N 38°52' W 090°09'1 3.5
2017-Sep-28 17:58N 38°53' W 090°10'2 3.7
2017-Sep-28 17:30N 38°54' W 090°12'2 3.1
2017-Sep-28 16:58N 38°55' W 090°14'0 0.1
2017-Sep-28 16:30N 38°55' W 090°14'1 2.4
2017-Sep-28 16:00N 38°55' W 090°15'2 4.0
2017-Sep-28 15:30N 38°55' W 090°18'2 3.9
2017-Sep-28 15:00N 38°56' W 090°20'2 4.3
2017-Sep-28 14:30N 38°57' W 090°22'2 4.3
2017-Sep-28 14:00N 38°58' W 090°25'2 4.2
2017-Sep-28 13:30N 38°58' W 090°27'2 3.6
2017-Sep-28 13:00N 38°58' W 090°30'2 3.2
2017-Sep-28 12:30N 38°57' W 090°32'2 3.5
2017-Sep-28 12:00N 38°59' W 090°33'  
2017-Sep-24 19:44N 38°58' W 090°33'1 3.9
2017-Sep-24 19:30N 38°57' W 090°32'1 2.7
2017-Sep-24 19:00N 38°58' W 090°30'0 0.0
2017-Sep-24 18:30N 38°58' W 090°30'0 0.1
2017-Sep-24 18:00N 38°58' W 090°30'1 2.1
2017-Sep-24 17:30N 38°58' W 090°29'2 3.8
2017-Sep-24 17:00N 38°58' W 090°26'2 3.7
2017-Sep-24 16:30N 38°58' W 090°24'2 3.8
2017-Sep-24 16:00N 38°57' W 090°22'2 4.0
2017-Sep-24 15:30N 38°56' W 090°20'2 3.9
2017-Sep-24 15:00N 38°55' W 090°17'  
Track history (hours):
 
Tides and Currents Weather Stations Pressure Air Temp Water Temp Dewpoint Dewpoint Depression Visibility Wind Speed Wind Dir Waves Ship Positions

Robin B Ingram

Owner: Ingram Barge Company LLC, Nashville, TN. More information available from US FCC via Universal Licensing System and Coast Guard Vessel Documentation Center.

Last reported at 2017-Oct-02 08:38 UTC. Time now 2017-Oct-20 12:52 UTC.
Position N 38°58' W 090°33'.
Warning: this ship's position is 18 days out of date.

Length 39 m; draft 2.7 m.

Type: Towing. MMSI: 366967670.

Date/timePositionNaut miles runAvg speedWind from/ knotsBaromVisibWave heightAir tempDewpointWater temp
2017-Oct-02 08:38N 38°58' W 090°33'1 4.3
2017-Oct-02 08:24N 38°57' W 090°32'1 3.6
2017-Oct-02 08:00N 38°58' W 090°30'2 4.0
2017-Oct-02 07:30N 38°58' W 090°27'2 3.9
2017-Oct-02 07:00N 38°58' W 090°25'1 2.0
2017-Oct-02 06:30N 38°58' W 090°24'0 0.0
2017-Oct-02 06:00N 38°58' W 090°24'0 0.1
2017-Oct-02 05:30N 38°58' W 090°24'0 0.1
2017-Oct-02 05:00N 38°58' W 090°24'0 0.0
2017-Oct-02 04:30N 38°58' W 090°24'0 0.0
2017-Oct-02 04:00N 38°58' W 090°24'1 1.1
2017-Oct-02 03:30N 38°57' W 090°23'2 3.5
2017-Oct-02 03:00N 38°57' W 090°21'2 3.5
2017-Oct-02 02:30N 38°56' W 090°19'2 3.5
2017-Oct-02 02:00N 38°55' W 090°17'2 3.5
2017-Oct-02 01:27N 38°55' W 090°14'2 3.7
2017-Oct-02 01:00N 38°54' W 090°13'  
2017-Sep-29 14:12N 38°50' W 090°06'0 0.0
2017-Sep-29 14:00N 38°50' W 090°06'0 0.0
2017-Sep-29 13:30N 38°50' W 090°06'0 0.0
2017-Sep-29 13:00N 38°50' W 090°06'0 0.0
2017-Sep-29 10:33N 38°50' W 090°06'0 0.0
2017-Sep-29 10:24N 38°50' W 090°06'0 0.0
2017-Sep-29 07:02N 38°50' W 090°06'1 4.5
2017-Sep-29 06:51N 38°49' W 090°07'4 0.3
2017-Sep-28 18:11N 38°52' W 090°09'1 3.5
2017-Sep-28 17:58N 38°53' W 090°10'2 3.7
2017-Sep-28 17:30N 38°54' W 090°12'2 3.1
2017-Sep-28 16:58N 38°55' W 090°14'0 0.1
2017-Sep-28 16:30N 38°55' W 090°14'1 2.4
2017-Sep-28 16:00N 38°55' W 090°15'2 4.0
2017-Sep-28 15:30N 38°55' W 090°18'2 3.9
2017-Sep-28 15:00N 38°56' W 090°20'2 4.3
2017-Sep-28 14:30N 38°57' W 090°22'2 4.3
2017-Sep-28 14:00N 38°58' W 090°25'2 4.2
2017-Sep-28 13:30N 38°58' W 090°27'2 3.6
2017-Sep-28 13:00N 38°58' W 090°30'2 3.2
2017-Sep-28 12:30N 38°57' W 090°32'2 3.5
2017-Sep-28 12:00N 38°59' W 090°33'  
2017-Sep-24 19:44N 38°58' W 090°33'1 3.9
2017-Sep-24 19:30N 38°57' W 090°32'1 2.7
2017-Sep-24 19:00N 38°58' W 090°30'0 0.0
2017-Sep-24 18:30N 38°58' W 090°30'0 0.1
2017-Sep-24 18:00N 38°58' W 090°30'1 2.1
2017-Sep-24 17:30N 38°58' W 090°29'2 3.8
2017-Sep-24 17:00N 38°58' W 090°26'2 3.7
2017-Sep-24 16:30N 38°58' W 090°24'2 3.8
2017-Sep-24 16:00N 38°57' W 090°22'2 4.0
2017-Sep-24 15:30N 38°56' W 090°20'2 3.9
2017-Sep-24 15:00N 38°55' W 090°17'  

Dump ship's entire track history